Time;durP1;ratioP1;P1;durP2;ratioP2;P2;SDS_P1;SDS_P2;PMS_P1;PMS_P2;Temp;Humidity;BMP_temperature;BMP_pressure;BME280_temperature;BME280_humidity;BME280_pressure;Samples;Min_cycle;Max_cycle;Signal;HPM_P1;HPM_P2
2023/10/31 00:00:20;;;;;;;26.10;8.93;;;11.20;99.90;;;;;;6128524;23;20921;-91
2023/10/31 00:02:46;;;;;;;24.95;8.30;;;10.70;99.90;;;;;;6129991;23;20463;-91
2023/10/31 00:05:12;;;;;;;29.93;8.33;;;11.10;99.90;;;;;;6127998;23;20369;-93
2023/10/31 00:07:37;;;;;;;25.13;7.43;;;10.80;99.90;;;;;;6129557;23;20479;-91
2023/10/31 00:10:03;;;;;;;25.52;6.80;;;11.00;99.90;;;;;;6128358;23;20376;-91
2023/10/31 00:12:29;;;;;;;32.38;7.85;;;10.70;99.90;;;;;;6129405;23;20370;-91
2023/10/31 00:14:54;;;;;;;29.33;7.77;;;11.50;99.90;;;;;;6128912;23;20389;-91
2023/10/31 00:17:20;;;;;;;23.08;6.43;;;10.90;99.90;;;;;;6129052;23;20462;-91
2023/10/31 00:19:46;;;;;;;29.13;6.60;;;11.40;99.90;;;;;;6129951;23;20378;-92
2023/10/31 00:22:11;;;;;;;22.70;6.50;;;10.80;99.90;;;;;;6128141;23;20381;-91
2023/10/31 00:24:37;;;;;;;31.50;8.30;;;10.60;99.90;;;;;;6129886;23;20377;-91
2023/10/31 00:27:03;;;;;;;31.80;9.30;;;10.80;99.90;;;;;;6127516;23;20397;-91
2023/10/31 00:29:28;;;;;;;37.60;9.80;;;10.50;99.90;;;;;;6129751;23;20389;-90
2023/10/31 00:31:54;;;;;;;26.33;8.98;;;10.90;99.90;;;;;;6128618;23;20377;-91
2023/10/31 00:34:20;;;;;;;20.87;7.47;;;10.40;99.90;;;;;;6129513;23;20384;-91
2023/10/31 00:36:46;;;;;;;23.33;6.93;;;10.50;99.90;;;;;;6150037;23;20425;-91
2023/10/31 00:39:11;;;;;;;23.83;6.87;;;10.80;99.90;;;;;;6153308;23;20378;-92
2023/10/31 00:41:39;;;;;;;24.63;6.57;;;10.80;99.90;;;;;;6158480;23;20418;-91
2023/10/31 00:44:05;;;;;;;24.27;7.43;;;10.20;99.90;;;;;;6155807;23;20379;-91
2023/10/31 00:46:30;;;;;;;28.83;8.88;;;10.30;99.90;;;;;;6157540;23;20363;-91
2023/10/31 00:48:57;;;;;;;39.70;12.32;;;10.40;99.90;;;;;;6156136;23;20538;-92
2023/10/31 00:51:22;;;;;;;53.17;14.07;;;10.50;99.90;;;;;;6159016;23;20367;-91
2023/10/31 00:53:48;;;;;;;36.65;12.60;;;10.70;99.90;;;;;;6158606;23;20473;-91
2023/10/31 00:56:14;;;;;;;34.50;11.63;;;10.20;99.90;;;;;;6158055;23;20731;-91
2023/10/31 00:58:39;;;;;;;30.35;9.98;;;10.70;99.90;;;;;;6159024;23;20372;-91
2023/10/31 01:01:05;;;;;;;23.30;6.60;;;10.70;99.90;;;;;;6158213;23;20395;-92
2023/10/31 01:03:31;;;;;;;16.63;5.63;;;10.60;99.90;;;;;;6161040;23;20794;-92
2023/10/31 01:05:56;;;;;;;21.75;6.90;;;10.60;99.90;;;;;;6159599;23;20455;-92
2023/10/31 01:08:22;;;;;;;26.30;7.37;;;10.60;99.90;;;;;;6160631;23;20395;-92
2023/10/31 01:10:48;;;;;;;27.48;7.75;;;11.10;99.90;;;;;;6159663;23;20468;-91
2023/10/31 01:13:13;;;;;;;24.23;7.97;;;10.20;99.90;;;;;;6160335;23;20390;-91
2023/10/31 01:15:39;;;;;;;27.07;8.70;;;10.30;99.90;;;;;;6160508;23;20375;-91
2023/10/31 01:18:05;;;;;;;39.63;10.07;;;10.40;99.90;;;;;;6159423;23;20402;-91
2023/10/31 01:20:31;;;;;;;45.88;12.55;;;10.20;99.90;;;;;;6160959;23;20371;-92
2023/10/31 01:22:57;;;;;;;36.35;10.70;;;10.70;99.90;;;;;;6158664;23;20374;-91
2023/10/31 01:25:22;;;;;;;45.80;12.95;;;11.10;99.90;;;;;;6160917;23;20386;-91
2023/10/31 01:27:48;;;;;;;31.60;10.90;;;10.40;99.90;;;;;;6158973;23;20721;-90
2023/10/31 01:30:14;;;;;;;32.10;11.02;;;10.20;99.90;;;;;;6160530;23;20384;-92
2023/10/31 01:32:39;;;;;;;40.10;12.55;;;10.20;99.90;;;;;;6159970;23;20483;-92
2023/10/31 01:35:07;;;;;;;38.80;12.10;;;10.50;99.90;;;;;;6134290;23;23043;-91
2023/10/31 01:37:33;;;;;;;34.03;11.23;;;10.20;99.90;;;;;;6160620;23;20883;-92
2023/10/31 01:39:58;;;;;;;25.13;8.93;;;10.60;99.90;;;;;;6158685;23;20368;-91
2023/10/31 01:42:24;;;;;;;29.27;10.07;;;10.50;99.90;;;;;;6158700;23;20374;-91
2023/10/31 01:44:50;;;;;;;27.73;9.98;;;10.80;99.90;;;;;;6158784;23;20372;-92
2023/10/31 01:47:15;;;;;;;29.13;10.05;;;10.30;99.90;;;;;;6156953;23;20397;-92
2023/10/31 01:49:41;;;;;;;31.50;9.97;;;10.40;99.90;;;;;;6159353;23;20675;-92
2023/10/31 01:52:07;;;;;;;34.92;10.77;;;10.70;99.90;;;;;;6154619;23;20854;-92
2023/10/31 01:54:33;;;;;;;34.10;10.82;;;10.50;99.90;;;;;;6155087;23;20428;-91
2023/10/31 01:57:00;;;;;;;44.42;13.18;;;10.90;99.90;;;;;;6153836;23;20411;-92
2023/10/31 01:59:27;;;;;;;47.72;13.57;;;10.40;99.90;;;;;;6157580;23;20373;-92
2023/10/31 02:01:53;;;;;;;49.63;13.80;;;10.50;99.90;;;;;;6158661;23;20364;-92
2023/10/31 02:04:19;;;;;;;53.28;14.13;;;10.30;99.90;;;;;;6160428;23;20393;-91
2023/10/31 02:06:45;;;;;;;29.20;11.68;;;10.80;99.90;;;;;;6158490;23;20449;-92
2023/10/31 02:09:11;;;;;;;39.38;12.88;;;10.60;99.90;;;;;;6155611;23;20838;-92
2023/10/31 02:11:37;;;;;;;43.22;12.80;;;10.50;99.90;;;;;;6160415;23;20462;-92
2023/10/31 02:14:03;;;;;;;31.08;11.48;;;10.70;99.90;;;;;;6154328;23;20366;-92
2023/10/31 02:16:29;;;;;;;44.58;12.73;;;10.40;99.90;;;;;;6158638;23;20869;-92
2023/10/31 02:18:54;;;;;;;63.63;15.20;;;10.80;99.90;;;;;;6158369;23;20845;-93
2023/10/31 02:21:20;;;;;;;59.10;15.70;;;10.50;99.90;;;;;;6158155;23;20376;-92
2023/10/31 02:23:59;;;;;;;57.58;16.23;;;10.40;99.90;;;;;;6158576;23;20399;-92
2023/10/31 02:26:32;;;;;;;53.17;16.38;;;10.20;99.90;;;;;;6159552;23;20387;-93
2023/10/31 02:28:57;;;;;;;62.53;16.93;;;10.30;99.90;;;;;;6159498;23;20421;-94
2023/10/31 02:31:23;;;;;;;53.13;16.02;;;10.60;99.90;;;;;;6181901;23;20703;-93
2023/10/31 02:33:49;;;;;;;38.85;13.40;;;10.50;99.90;;;;;;6160489;23;20364;-92
2023/10/31 02:36:15;;;;;;;45.10;14.45;;;10.50;99.90;;;;;;6157947;23;20857;-91
2023/10/31 02:38:40;;;;;;;45.80;14.60;;;10.20;99.90;;;;;;6160086;23;20780;-92
2023/10/31 02:41:06;;;;;;;47.17;13.67;;;10.00;99.90;;;;;;6158564;23;20379;-93
2023/10/31 02:43:32;;;;;;;54.50;14.27;;;10.50;99.90;;;;;;6159845;23;20392;-92
2023/10/31 02:45:57;;;;;;;61.37;14.83;;;11.00;99.90;;;;;;6159325;23;20516;-92
2023/10/31 02:48:24;;;;;;;38.53;12.32;;;10.30;99.90;;;;;;6158921;23;20392;-94
2023/10/31 02:50:50;;;;;;;51.30;13.75;;;10.10;99.90;;;;;;6160307;23;20363;-95
2023/10/31 02:53:18;;;;;;;39.42;11.80;;;10.70;99.90;;;;;;6158145;23;20379;-95
2023/10/31 02:55:44;;;;;;;39.60;12.07;;;10.50;99.90;;;;;;6160804;23;20870;-93
2023/10/31 02:58:10;;;;;;;37.33;11.30;;;9.70;99.90;;;;;;6153203;23;20382;-93
2023/10/31 03:00:36;;;;;;;47.30;12.60;;;10.00;99.90;;;;;;6168396;23;20401;-93
2023/10/31 03:03:02;;;;;;;54.17;12.73;;;10.40;99.90;;;;;;6147168;23;20389;-93
2023/10/31 03:05:28;;;;;;;38.87;12.10;;;10.30;99.90;;;;;;6158857;23;20742;-94
2023/10/31 03:07:53;;;;;;;51.00;13.20;;;10.60;99.90;;;;;;6159349;23;20400;-93
2023/10/31 03:10:22;;;;;;;35.63;11.00;;;10.60;99.90;;;;;;6158243;23;20371;-95
2023/10/31 03:12:48;;;;;;;34.67;10.45;;;10.60;99.90;;;;;;6160220;23;20374;-93
2023/10/31 03:15:13;;;;;;;31.98;9.82;;;10.80;99.90;;;;;;6158259;23;20833;-94
2023/10/31 03:17:39;;;;;;;33.60;10.75;;;10.90;99.90;;;;;;6155086;23;20373;-94
2023/10/31 03:20:05;;;;;;;38.33;10.97;;;11.10;99.90;;;;;;6147400;23;20408;-93
2023/10/31 03:22:31;;;;;;;35.70;10.45;;;10.40;99.90;;;;;;6159247;23;20689;-94
2023/10/31 03:24:57;;;;;;;33.03;11.07;;;10.60;99.90;;;;;;6158988;23;20449;-96
2023/10/31 03:27:22;;;;;;;39.42;10.85;;;10.60;99.90;;;;;;6157973;23;20972;-93
2023/10/31 03:29:48;;;;;;;29.37;10.20;;;10.80;99.90;;;;;;6159557;23;20457;-94
2023/10/31 03:32:15;;;;;;;36.47;11.33;;;11.10;99.90;;;;;;6154077;23;20401;-93
2023/10/31 03:34:41;;;;;;;43.25;11.05;;;10.70;99.90;;;;;;6159467;23;20442;-92
2023/10/31 03:37:07;;;;;;;28.02;9.80;;;10.80;99.90;;;;;;6157531;23;20367;-94
2023/10/31 03:39:33;;;;;;;34.17;10.48;;;10.60;99.90;;;;;;6154368;23;20397;-94
2023/10/31 03:41:59;;;;;;;34.45;10.98;;;10.70;99.90;;;;;;6146476;23;20457;-93
2023/10/31 03:44:25;;;;;;;38.10;10.68;;;10.70;99.90;;;;;;6155669;23;20487;-94
2023/10/31 03:46:50;;;;;;;37.00;10.27;;;10.70;99.90;;;;;;6159320;23;20423;-94
2023/10/31 03:49:16;;;;;;;49.20;12.77;;;10.50;99.90;;;;;;6154485;23;20369;-93
2023/10/31 03:51:42;;;;;;;46.33;12.85;;;10.90;99.90;;;;;;6159832;23;20470;-93
2023/10/31 03:54:08;;;;;;;31.90;10.13;;;10.90;99.90;;;;;;6157549;23;20450;-93
2023/10/31 03:56:40;;;;;;;39.17;10.85;;;10.70;99.90;;;;;;6159478;23;20694;-94
2023/10/31 03:59:06;;;;;;;37.78;10.70;;;10.80;99.90;;;;;;6157640;23;20375;-93
2023/10/31 04:01:32;;;;;;;47.10;12.10;;;10.90;99.90;;;;;;6158977;23;21034;-93
2023/10/31 04:03:57;;;;;;;39.23;11.43;;;10.60;99.90;;;;;;6159118;23;20387;-93
2023/10/31 04:06:23;;;;;;;55.90;13.47;;;10.60;99.90;;;;;;6157964;23;20378;-93
2023/10/31 04:08:48;;;;;;;48.28;10.90;;;10.90;99.90;;;;;;6159474;23;20779;-93
2023/10/31 04:11:14;;;;;;;28.53;8.43;;;11.20;99.90;;;;;;6157395;23;20382;-95
2023/10/31 04:13:40;;;;;;;33.13;8.30;;;11.10;99.90;;;;;;6154641;23;20374;-92
2023/10/31 04:16:06;;;;;;;22.57;5.80;;;10.60;99.90;;;;;;6146847;23;20382;-93
2023/10/31 04:18:31;;;;;;;19.30;5.32;;;10.50;99.90;;;;;;6159478;23;20452;-93
2023/10/31 04:20:57;;;;;;;19.48;4.25;;;10.50;99.90;;;;;;6153476;23;20372;-93
2023/10/31 04:23:23;;;;;;;25.20;4.80;;;10.80;99.90;;;;;;6154528;23;20377;-94
2023/10/31 04:25:50;;;;;;;15.00;3.55;;;10.30;99.90;;;;;;6154264;23;20428;-94
2023/10/31 04:28:16;;;;;;;19.77;4.13;;;10.90;99.90;;;;;;6150691;23;20393;-95
2023/10/31 04:30:42;;;;;;;19.93;4.27;;;10.70;99.90;;;;;;6153847;23;20377;-93
2023/10/31 04:33:07;;;;;;;21.73;5.10;;;10.80;99.90;;;;;;6147478;23;20703;-92
2023/10/31 04:35:33;;;;;;;20.23;4.65;;;10.80;99.90;;;;;;6178598;23;20734;-94
2023/10/31 04:37:59;;;;;;;23.00;5.13;;;11.00;99.90;;;;;;6152786;23;20774;-94
2023/10/31 04:40:24;;;;;;;17.42;3.85;;;11.00;99.90;;;;;;6157864;23;20456;-93
2023/10/31 04:42:50;;;;;;;18.80;4.45;;;10.90;99.90;;;;;;6153579;23;20380;-93
2023/10/31 04:45:15;;;;;;;15.77;3.70;;;11.00;99.90;;;;;;6150778;23;20381;-92
2023/10/31 04:47:42;;;;;;;13.77;3.38;;;10.90;99.90;;;;;;6154020;23;20461;-92
2023/10/31 04:50:08;;;;;;;18.20;3.65;;;10.60;99.90;;;;;;6146742;23;20373;-92
2023/10/31 04:52:36;;;;;;;12.40;3.20;;;10.50;99.90;;;;;;6154445;23;20377;-95
2023/10/31 04:55:05;;;;;;;11.80;3.10;;;10.80;99.90;;;;;;6151514;23;20460;-92
2023/10/31 04:57:31;;;;;;;14.80;3.47;;;10.50;99.90;;;;;;6156618;23;20372;-92
2023/10/31 04:59:58;;;;;;;13.80;3.25;;;10.70;99.90;;;;;;6153121;23;20424;-94
2023/10/31 05:02:24;;;;;;;14.20;3.22;;;10.80;99.90;;;;;;6154535;23;20388;-94
2023/10/31 05:04:50;;;;;;;10.23;2.27;;;10.60;99.90;;;;;;6153725;23;20374;-94
2023/10/31 05:07:17;;;;;;;10.73;2.17;;;10.70;99.90;;;;;;6148567;23;20957;-94
2023/10/31 05:09:49;;;;;;;7.77;1.83;;;10.70;99.90;;;;;;6153200;23;20917;-95
2023/10/31 05:12:14;;;;;;;9.80;1.98;;;10.30;99.90;;;;;;6149607;23;20378;-93
2023/10/31 05:14:40;;;;;;;10.15;1.90;;;10.30;99.90;;;;;;6152811;23;20731;-95
2023/10/31 05:17:06;;;;;;;9.63;2.03;;;11.00;99.90;;;;;;6145994;23;20372;-94
2023/10/31 05:19:32;;;;;;;9.37;2.00;;;10.30;99.90;;;;;;6178758;23;20453;-94
2023/10/31 05:21:57;;;;;;;10.18;1.95;;;10.30;99.90;;;;;;6177314;23;20873;-94
2023/10/31 05:24:23;;;;;;;12.97;2.30;;;10.50;99.90;;;;;;6179172;23;20571;-93
2023/10/31 05:27:09;;;;;;;12.60;2.25;;;10.60;99.90;;;;;;6152328;23;20455;-96
2023/10/31 05:29:35;;;;;;;9.15;2.05;;;10.60;99.90;;;;;;6137240;23;20373;-96
2023/10/31 05:32:02;;;;;;;15.10;3.23;;;11.00;99.90;;;;;;6153561;23;20460;-94
2023/10/31 05:34:50;;;;;;;11.43;2.90;;;10.30;99.90;;;;;;6154718;23;20376;-93
2023/10/31 05:37:16;;;;;;;17.83;3.40;;;10.30;99.90;;;;;;6153212;23;20404;-95
2023/10/31 05:39:41;;;;;;;12.67;3.30;;;10.10;99.90;;;;;;6151463;23;20377;-94
2023/10/31 05:42:07;;;;;;;15.20;3.50;;;10.60;99.90;;;;;;6146592;23;20703;-94
2023/10/31 05:44:33;;;;;;;22.75;4.78;;;10.40;99.90;;;;;;6152526;23;20370;-94
2023/10/31 05:46:58;;;;;;;20.70;4.80;;;10.70;99.90;;;;;;6176783;23;20904;-95
2023/10/31 05:49:24;;;;;;;14.45;4.45;;;11.10;99.90;;;;;;6185383;23;21052;-94
2023/10/31 05:51:51;;;;;;;26.13;5.47;;;11.20;99.90;;;;;;6153138;23;20369;-93
2023/10/31 05:54:17;;;;;;;21.23;5.07;;;10.50;99.90;;;;;;6153481;23;20400;-93
2023/10/31 05:56:45;;;;;;;16.23;4.90;;;10.80;99.90;;;;;;6152348;23;20372;-94
2023/10/31 05:59:11;;;;;;;20.63;5.50;;;10.70;99.90;;;;;;6150468;23;20369;-93
2023/10/31 06:01:37;;;;;;;21.50;5.43;;;10.60;99.90;;;;;;6154397;23;20388;-95
2023/10/31 06:04:03;;;;;;;18.63;5.13;;;11.30;99.90;;;;;;6146977;23;20374;-95
2023/10/31 06:06:33;;;;;;;18.67;5.32;;;10.50;99.90;;;;;;6157949;23;20455;-94
2023/10/31 06:08:59;;;;;;;18.75;5.72;;;10.70;99.90;;;;;;6151896;23;20377;-95
2023/10/31 06:11:25;;;;;;;25.08;6.50;;;10.80;99.90;;;;;;6155380;23;20448;-95
2023/10/31 06:13:51;;;;;;;21.95;6.00;;;10.90;99.90;;;;;;6150881;23;20401;-95
2023/10/31 06:16:16;;;;;;;27.50;6.17;;;10.90;99.90;;;;;;6153378;23;20373;-95
2023/10/31 06:18:42;;;;;;;21.38;5.65;;;10.40;99.90;;;;;;6152695;23;20481;-94
2023/10/31 06:21:09;;;;;;;22.88;5.53;;;11.00;99.90;;;;;;6149061;23;20688;-94
2023/10/31 06:23:36;;;;;;;19.73;5.80;;;10.90;99.90;;;;;;6153637;23;20382;-94
2023/10/31 06:26:02;;;;;;;20.55;5.85;;;11.00;99.90;;;;;;6146483;23;20424;-96
2023/10/31 06:28:28;;;;;;;22.80;6.13;;;10.60;99.90;;;;;;6158067;23;20400;-95
2023/10/31 06:30:54;;;;;;;22.40;5.87;;;10.50;99.90;;;;;;6150684;23;20373;-94
2023/10/31 06:33:19;;;;;;;26.67;6.30;;;10.60;99.90;;;;;;6153432;23;20377;-94
2023/10/31 06:35:45;;;;;;;25.23;6.00;;;10.80;99.90;;;;;;6152161;23;20378;-95
2023/10/31 06:38:11;;;;;;;21.63;5.63;;;10.60;99.90;;;;;;6154198;23;20391;-95
2023/10/31 06:40:36;;;;;;;17.30;5.37;;;11.00;99.90;;;;;;6158483;23;20375;-94
2023/10/31 06:43:02;;;;;;;19.55;5.50;;;10.80;99.90;;;;;;6156064;23;20368;-93
2023/10/31 06:45:28;;;;;;;25.65;5.75;;;10.90;99.90;;;;;;6158895;23;20856;-96
2023/10/31 06:47:54;;;;;;;21.63;5.47;;;10.70;99.90;;;;;;6156695;23;20388;-94
2023/10/31 06:50:19;;;;;;;21.52;5.40;;;10.70;99.90;;;;;;6158881;23;20367;-93
2023/10/31 06:52:45;;;;;;;25.08;5.90;;;11.40;99.90;;;;;;6156745;23;20434;-93
2023/10/31 06:55:10;;;;;;;24.67;5.07;;;10.60;99.90;;;;;;6159074;23;20376;-93
2023/10/31 06:57:36;;;;;;;20.17;4.95;;;10.50;99.90;;;;;;6157017;23;20402;-93
2023/10/31 07:00:03;;;;;;;16.67;4.28;;;10.10;99.90;;;;;;6158138;23;20367;-93
2023/10/31 07:02:28;;;;;;;25.15;4.60;;;10.50;99.90;;;;;;6158330;23;20387;-92
2023/10/31 07:04:54;;;;;;;13.60;3.38;;;10.70;99.90;;;;;;6157616;23;20375;-92
2023/10/31 07:07:20;;;;;;;16.20;3.73;;;11.20;99.90;;;;;;6159085;23;20967;-93
2023/10/31 07:09:45;;;;;;;17.27;3.53;;;10.80;99.90;;;;;;6156866;23;20742;-93
2023/10/31 07:12:11;;;;;;;13.13;3.03;;;10.60;99.90;;;;;;6159032;23;20368;-93
2023/10/31 07:14:37;;;;;;;12.63;2.50;;;10.90;99.90;;;;;;6156953;23;20464;-92
2023/10/31 07:17:03;;;;;;;11.90;2.40;;;10.90;99.90;;;;;;6158585;23;20821;-92
2023/10/31 07:19:28;;;;;;;12.55;2.88;;;10.60;99.90;;;;;;6158107;23;20378;-91
2023/10/31 07:21:54;;;;;;;15.40;2.33;;;11.10;99.90;;;;;;6157817;23;20386;-91
2023/10/31 07:24:20;;;;;;;11.05;1.88;;;11.60;99.90;;;;;;6158247;23;20463;-94
2023/10/31 07:26:45;;;;;;;10.93;1.60;;;11.00;99.90;;;;;;6156631;23;20372;-92
2023/10/31 07:29:12;;;;;;;7.35;1.00;;;10.70;99.90;;;;;;6158639;23;20468;-94
2023/10/31 07:31:40;;;;;;;7.25;1.30;;;11.00;99.90;;;;;;6157465;23;20368;-93
2023/10/31 07:34:06;;;;;;;9.48;1.77;;;11.10;99.90;;;;;;6155117;23;20385;-95
2023/10/31 07:36:39;;;;;;;7.18;1.30;;;11.10;99.90;;;;;;6133556;23;20373;-92
2023/10/31 07:39:05;;;;;;;10.90;1.30;;;11.10;99.90;;;;;;6124008;23;20371;-93
2023/10/31 07:41:30;;;;;;;8.23;1.20;;;11.20;99.90;;;;;;6128600;23;20862;-91
2023/10/31 07:43:56;;;;;;;6.90;1.05;;;11.20;99.90;;;;;;6122554;23;20476;-92
2023/10/31 07:46:23;;;;;;;9.23;1.10;;;11.20;99.90;;;;;;6127918;23;20846;-90
2023/10/31 07:48:49;;;;;;;7.87;1.17;;;10.90;99.90;;;;;;6122333;23;20395;-92
2023/10/31 07:51:15;;;;;;;7.38;0.77;;;11.10;99.90;;;;;;6125807;23;20870;-90
2023/10/31 07:53:41;;;;;;;8.43;0.60;;;11.20;99.90;;;;;;6123196;23;20374;-92
2023/10/31 07:56:15;;;;;;;5.65;0.40;;;11.30;99.90;;;;;;6124254;23;20373;-92
2023/10/31 07:58:41;;;;;;;2.67;0.30;;;11.10;99.90;;;;;;6123948;23;20398;-93
2023/10/31 08:01:10;;;;;;;3.57;0.40;;;11.20;99.90;;;;;;6122983;23;20381;-93
2023/10/31 08:03:37;;;;;;;5.30;0.70;;;11.20;99.90;;;;;;6124729;23;20382;-93
2023/10/31 08:06:04;;;;;;;7.20;0.60;;;10.90;99.90;;;;;;6122749;23;20390;-93
2023/10/31 08:08:29;;;;;;;5.85;0.30;;;10.90;99.90;;;;;;6128915;23;20458;-91
2023/10/31 08:10:57;;;;;;;4.75;0.20;;;11.20;99.90;;;;;;6123076;23;20407;-91
2023/10/31 08:13:22;;;;;;;6.45;0.40;;;11.40;99.90;;;;;;6127031;23;20865;-91
2023/10/31 08:15:48;;;;;;;5.25;0.30;;;11.30;99.90;;;;;;6122010;23;20379;-93
2023/10/31 08:18:13;;;;;;;5.77;0.57;;;11.00;99.90;;;;;;6125549;23;20373;-94
2023/10/31 08:20:39;;;;;;;7.47;0.60;;;10.70;99.90;;;;;;6123852;23;20382;-95
2023/10/31 08:23:05;;;;;;;8.47;0.80;;;11.30;99.90;;;;;;6122434;23;20405;-95
2023/10/31 08:25:33;;;;;;;9.15;0.60;;;11.10;99.90;;;;;;6129770;23;20926;-96
2023/10/31 08:27:59;;;;;;;10.88;0.85;;;11.50;99.90;;;;;;6122525;23;20399;-94
2023/10/31 08:30:25;;;;;;;15.17;0.93;;;11.10;99.90;;;;;;6128321;23;20392;-94
2023/10/31 08:32:50;;;;;;;9.30;0.70;;;11.10;99.90;;;;;;6123263;23;20393;-94
2023/10/31 08:35:16;;;;;;;9.47;0.40;;;11.60;99.90;;;;;;6122512;23;20393;-95
2023/10/31 08:37:42;;;;;;;11.27;0.50;;;11.50;99.90;;;;;;6168198;23;20676;-94
2023/10/31 08:40:08;;;;;;;13.77;0.88;;;11.40;99.90;;;;;;6123898;23;20371;-94
2023/10/31 08:42:33;;;;;;;14.10;0.77;;;11.20;99.90;;;;;;6111588;23;20429;-93
2023/10/31 08:44:59;;;;;;;13.87;0.50;;;11.10;99.90;;;;;;6116481;23;20762;-94
2023/10/31 08:47:25;;;;;;;12.03;0.70;;;11.50;99.90;;;;;;6128400;23;20395;-92
2023/10/31 08:49:51;;;;;;;13.80;0.77;;;11.10;99.90;;;;;;6167933;23;20384;-93
2023/10/31 08:52:17;;;;;;;14.05;0.80;;;11.40;99.90;;;;;;6150972;23;20378;-94
2023/10/31 08:54:43;;;;;;;10.55;0.80;;;11.70;99.90;;;;;;6166401;23;20408;-94
2023/10/31 08:57:09;;;;;;;5.65;0.40;;;11.40;99.90;;;;;;6124234;23;20374;-95
2023/10/31 08:59:35;;;;;;;6.93;0.30;;;11.20;99.90;;;;;;6166560;23;20373;-94
2023/10/31 09:02:01;;;;;;;10.65;0.60;;;11.50;99.90;;;;;;6148566;23;20383;-95
2023/10/31 09:04:27;;;;;;;9.85;0.60;;;11.50;99.90;;;;;;6116124;23;20370;-94
2023/10/31 09:06:53;;;;;;;9.02;0.40;;;11.30;99.90;;;;;;6167902;23;20468;-94
2023/10/31 09:09:19;;;;;;;10.60;0.50;;;11.50;99.90;;;;;;6126669;23;20450;-94
2023/10/31 09:11:44;;;;;;;4.18;0.30;;;11.50;99.90;;;;;;6169339;23;20385;-96
2023/10/31 09:14:12;;;;;;;3.77;0.20;;;11.70;99.90;;;;;;6124585;23;20406;-95
2023/10/31 09:16:38;;;;;;;7.68;0.40;;;11.60;99.90;;;;;;6167183;23;20369;-93
2023/10/31 09:19:04;;;;;;;7.60;0.50;;;11.70;99.90;;;;;;6123487;23;21071;-94
2023/10/31 09:21:29;;;;;;;4.13;0.43;;;11.70;99.90;;;;;;6128307;23;20805;-94
2023/10/31 09:23:55;;;;;;;5.35;0.20;;;11.40;99.90;;;;;;6171774;23;20904;-95
2023/10/31 09:26:20;;;;;;;9.23;0.30;;;11.30;99.90;;;;;;6127446;23;20867;-93
2023/10/31 09:28:49;;;;;;;6.37;0.37;;;11.30;99.90;;;;;;6167846;23;20393;-94
2023/10/31 09:31:18;;;;;;;5.78;0.22;;;11.70;99.90;;;;;;6151738;23;20364;-94
2023/10/31 09:33:47;;;;;;;6.97;0.30;;;11.30;99.90;;;;;;6168574;23;20561;-95
2023/10/31 09:36:23;;;;;;;5.07;0.20;;;11.50;99.90;;;;;;6157244;23;20707;-96
2023/10/31 09:39:14;;;;;;;5.38;0.20;;;11.50;99.90;;;;;;6128543;23;20381;-95
2023/10/31 09:41:40;;;;;;;5.35;0.30;;;11.20;99.90;;;;;;6128326;23;20381;-95
2023/10/31 09:44:06;;;;;;;8.53;0.50;;;11.80;99.90;;;;;;6132017;23;20373;-94
2023/10/31 09:46:31;;;;;;;5.00;0.30;;;11.40;99.90;;;;;;6128275;23;20747;-96
2023/10/31 09:48:57;;;;;;;5.82;0.57;;;11.40;99.90;;;;;;6130714;23;20425;-94
2023/10/31 09:51:23;;;;;;;7.80;0.30;;;11.90;99.90;;;;;;6127806;23;20366;-95
2023/10/31 09:53:53;;;;;;;8.43;0.30;;;11.80;99.90;;;;;;6130245;23;20372;-94
2023/10/31 09:56:22;;;;;;;8.18;0.30;;;11.60;99.90;;;;;;6131075;23;20385;-95
2023/10/31 09:58:48;;;;;;;6.55;0.50;;;11.20;99.90;;;;;;6129127;23;20384;-95
2023/10/31 10:01:14;;;;;;;9.15;0.38;;;11.30;99.90;;;;;;6130979;23;20784;-96
2023/10/31 10:03:40;;;;;;;6.25;0.30;;;12.00;99.90;;;;;;6127534;23;20513;-94
2023/10/31 10:06:06;;;;;;;10.60;0.60;;;11.50;99.90;;;;;;6130582;23;20438;-95
2023/10/31 10:08:36;;;;;;;8.07;0.40;;;11.90;99.90;;;;;;6127815;23;20403;-94
2023/10/31 10:11:02;;;;;;;9.18;0.30;;;11.40;99.90;;;;;;6130273;23;20377;-95
2023/10/31 10:13:28;;;;;;;6.40;0.50;;;11.70;99.90;;;;;;6128412;23;20377;-94
2023/10/31 10:15:54;;;;;;;7.25;0.50;;;11.90;99.90;;;;;;6129712;23;20380;-95
2023/10/31 10:18:27;;;;;;;8.57;0.40;;;11.50;99.90;;;;;;6129384;23;20369;-95
2023/10/31 10:21:04;;;;;;;6.47;0.70;;;11.90;99.90;;;;;;6127325;23;20374;-95
2023/10/31 10:23:39;;;;;;;9.50;0.53;;;11.80;99.90;;;;;;6132026;23;20380;-95
2023/10/31 10:26:05;;;;;;;10.75;0.47;;;12.20;99.90;;;;;;6127356;23;20847;-95
2023/10/31 10:28:32;;;;;;;9.70;0.40;;;11.90;99.90;;;;;;6129188;23;20393;-94
2023/10/31 10:30:58;;;;;;;6.67;0.50;;;11.90;99.90;;;;;;6128674;23;20702;-95
2023/10/31 10:33:24;;;;;;;7.37;0.40;;;11.60;99.90;;;;;;6129925;23;20374;-95
2023/10/31 10:35:50;;;;;;;8.15;0.70;;;12.00;99.90;;;;;;6138593;23;20380;-93
2023/10/31 10:38:18;;;;;;;7.13;0.40;;;11.90;99.90;;;;;;6155124;23;20405;-95
2023/10/31 10:40:45;;;;;;;11.75;0.98;;;12.00;99.90;;;;;;6154178;23;20850;-93
2023/10/31 10:43:22;;;;;;;9.55;0.90;;;11.80;99.90;;;;;;6149042;23;20456;-94
2023/10/31 10:45:57;;;;;;;9.30;0.88;;;12.00;99.90;;;;;;6154909;23;20369;-94
2023/10/31 10:48:25;;;;;;;9.13;0.40;;;11.90;99.90;;;;;;6154234;23;20408;-94
2023/10/31 10:50:59;;;;;;;12.52;0.57;;;12.20;99.90;;;;;;6153577;23;20370;-94
2023/10/31 10:53:30;;;;;;;8.38;0.77;;;11.50;99.90;;;;;;6156232;23;20452;-96
2023/10/31 10:56:00;;;;;;;8.80;0.40;;;12.20;99.90;;;;;;6151640;23;20373;-95
2023/10/31 10:59:03;;;;;;;10.18;0.80;;;12.20;99.90;;;;;;6156470;23;20550;-95
2023/10/31 11:01:31;;;;;;;7.35;0.55;;;12.30;99.90;;;;;;6156885;23;20375;-93
2023/10/31 11:04:00;;;;;;;7.53;0.60;;;12.40;99.90;;;;;;6152270;23;20468;-95
2023/10/31 11:06:45;;;;;;;8.88;0.55;;;12.10;99.90;;;;;;6157340;23;20400;-95
2023/10/31 11:09:13;;;;;;;7.43;0.50;;;12.30;99.90;;;;;;6151732;23;20378;-95
2023/10/31 11:11:47;;;;;;;5.50;0.40;;;12.30;99.90;;;;;;6154796;23;20400;-95
2023/10/31 11:14:22;;;;;;;6.45;0.30;;;12.40;99.90;;;;;;6148404;23;20365;-94
2023/10/31 11:16:59;;;;;;;10.63;0.70;;;12.20;99.90;;;;;;6154153;23;20447;-95
2023/10/31 11:19:27;;;;;;;6.63;0.30;;;12.00;99.90;;;;;;6156095;23;20806;-95
2023/10/31 11:22:00;;;;;;;7.75;0.43;;;12.10;99.90;;;;;;6151541;23;20766;-95
2023/10/31 11:24:36;;;;;;;7.00;0.50;;;12.00;99.90;;;;;;6158464;23;20454;-95
2023/10/31 11:27:04;;;;;;;6.72;0.40;;;12.70;99.90;;;;;;6151083;23;20393;-95
2023/10/31 11:29:34;;;;;;;10.37;0.47;;;12.20;99.90;;;;;;6157100;23;20403;-94
2023/10/31 11:32:11;;;;;;;6.70;0.35;;;12.30;99.90;;;;;;6149671;23;20381;-94
2023/10/31 11:34:44;;;;;;;7.23;0.60;;;12.70;99.90;;;;;;6139185;23;20380;-95
2023/10/31 11:37:27;;;;;;;7.90;0.60;;;12.50;99.90;;;;;;6152363;23;20388;-94
2023/10/31 11:40:18;;;;;;;10.27;0.60;;;12.40;99.90;;;;;;6150895;23;20378;-94
2023/10/31 11:42:56;;;;;;;7.38;0.40;;;12.40;99.90;;;;;;6147623;23;20384;-95
2023/10/31 11:45:28;;;;;;;8.13;0.40;;;12.40;99.90;;;;;;6155085;23;20366;-94
2023/10/31 11:47:54;;;;;;;7.13;0.40;;;12.40;99.90;;;;;;6152357;23;20393;-94
2023/10/31 11:50:19;;;;;;;9.77;0.80;;;12.50;99.90;;;;;;6149505;23;20862;-94
2023/10/31 11:52:57;;;;;;;8.25;0.70;;;12.50;99.90;;;;;;6151119;23;20374;-94
2023/10/31 11:55:24;;;;;;;9.38;0.70;;;12.60;99.90;;;;;;6154851;23;20424;-94
2023/10/31 11:57:49;;;;;;;7.63;0.60;;;13.10;99.90;;;;;;6150456;23;20365;-94
2023/10/31 12:00:23;;;;;;;8.98;0.40;;;12.90;99.90;;;;;;6150819;23;20373;-94
2023/10/31 12:03:00;;;;;;;7.13;0.50;;;12.20;99.90;;;;;;6151302;23;20780;-95
2023/10/31 12:05:26;;;;;;;11.27;0.63;;;12.60;99.90;;;;;;6152964;23;20377;-94
2023/10/31 12:07:51;;;;;;;7.88;0.40;;;11.80;99.90;;;;;;6152192;23;20428;-94
2023/10/31 12:11:07;;;;;;;10.90;0.87;;;12.50;99.90;;;;;;6149299;23;20440;-95
2023/10/31 12:13:21;;;;;;;7.10;0.45;;;12.40;99.90;;;;;;6166267;23;20389;-95
2023/10/31 12:15:53;;;;;;;10.20;0.90;;;12.20;99.90;;;;;;6149516;23;20370;-94
2023/10/31 12:18:19;;;;;;;8.00;0.70;;;12.00;99.90;;;;;;6151229;23;20377;-95
2023/10/31 12:20:52;;;;;;;9.07;0.90;;;12.10;99.90;;;;;;6151854;23;20454;-94
2023/10/31 12:23:18;;;;;;;9.73;0.70;;;12.20;99.90;;;;;;6149292;23;20381;-95
2023/10/31 12:25:56;;;;;;;9.57;0.57;;;11.60;99.90;;;;;;6153568;23;20373;-94
2023/10/31 12:28:28;;;;;;;6.53;0.40;;;12.30;99.90;;;;;;6150362;23;20393;-95
2023/10/31 12:30:54;;;;;;;10.43;0.57;;;12.40;99.90;;;;;;6152743;23;20385;-95
2023/10/31 12:33:21;;;;;;;10.02;0.85;;;11.80;99.90;;;;;;6151742;23;20401;-93
2023/10/31 12:35:49;;;;;;;9.23;0.70;;;11.80;99.90;;;;;;6152812;23;20471;-95
2023/10/31 12:38:15;;;;;;;11.07;0.67;;;12.00;99.90;;;;;;6153727;23;20377;-93